sensor_id;sensor_type;location;lat;lon;timestamp;pressure;altitude;pressure_sealevel;temperature;humidity
18765;BME280;9511;54.242;12.448;2023-08-17T03:04:33;102061.22;;;14.44;100.00
18765;BME280;9511;54.242;12.448;2023-08-17T03:07:01;102061.28;;;14.46;100.00
18765;BME280;9511;54.242;12.448;2023-08-17T03:09:28;102058.63;;;14.46;100.00
18765;BME280;9511;54.242;12.448;2023-08-17T03:11:55;102060.47;;;14.48;100.00
18765;BME280;9511;54.242;12.448;2023-08-17T03:14:23;102048.09;;;14.50;100.00
18765;BME280;9511;54.242;12.448;2023-08-17T03:16:50;102039.28;;;14.51;100.00
18765;BME280;9511;54.242;12.448;2023-08-17T03:19:17;102051.63;;;14.49;100.00
18765;BME280;9511;54.242;12.448;2023-08-17T03:21:46;102046.31;;;14.49;100.00
18765;BME280;9511;54.242;12.448;2023-08-17T03:24:14;102056.03;;;14.47;100.00
18765;BME280;9511;54.242;12.448;2023-08-17T03:26:41;102061.09;;;14.40;100.00
18765;BME280;9511;54.242;12.448;2023-08-17T03:29:08;102060.09;;;14.36;100.00
18765;BME280;9511;54.242;12.448;2023-08-17T03:31:36;102066.28;;;14.35;100.00
18765;BME280;9511;54.242;12.448;2023-08-17T03:34:03;102052.00;;;14.33;100.00
18765;BME280;9511;54.242;12.448;2023-08-17T03:36:31;102049.25;;;14.30;100.00
18765;BME280;9511;54.242;12.448;2023-08-17T03:38:59;102054.44;;;14.25;100.00
18765;BME280;9511;54.242;12.448;2023-08-17T03:41:27;102062.44;;;14.27;100.00
18765;BME280;9511;54.242;12.448;2023-08-17T03:43:54;102060.56;;;14.23;100.00
18765;BME280;9511;54.242;12.448;2023-08-17T03:46:21;102058.84;;;14.25;100.00
18765;BME280;9511;54.242;12.448;2023-08-17T03:48:48;102064.06;;;14.22;100.00
18765;BME280;9511;54.242;12.448;2023-08-17T03:51:15;102056.94;;;14.21;100.00
18765;BME280;9511;54.242;12.448;2023-08-17T03:53:43;102051.63;;;14.21;100.00
18765;BME280;9511;54.242;12.448;2023-08-17T03:56:11;102053.41;;;14.22;100.00
18765;BME280;9511;54.242;12.448;2023-08-17T03:58:39;102050.72;;;14.20;100.00
18765;BME280;9511;54.242;12.448;2023-08-17T04:01:06;102055.16;;;14.20;100.00
18765;BME280;9511;54.242;12.448;2023-08-17T04:03:34;102060.44;;;14.18;100.00
18765;BME280;9511;54.242;12.448;2023-08-17T04:06:04;102061.38;;;14.20;100.00
18765;BME280;9511;54.242;12.448;2023-08-17T04:08:32;102061.41;;;14.22;100.00
18765;BME280;9511;54.242;12.448;2023-08-17T04:10:59;102063.16;;;14.21;100.00
18765;BME280;9511;54.242;12.448;2023-08-17T04:13:28;102064.94;;;14.21;100.00
18765;BME280;9511;54.242;12.448;2023-08-17T04:15:56;102067.59;;;14.21;100.00
18765;BME280;9511;54.242;12.448;2023-08-17T04:18:24;102068.56;;;14.23;100.00
18765;BME280;9511;54.242;12.448;2023-08-17T04:20:52;102085.34;;;14.22;100.00
18765;BME280;9511;54.242;12.448;2023-08-17T04:23:19;102073.03;;;14.24;100.00
18765;BME280;9511;54.242;12.448;2023-08-17T04:25:46;102075.66;;;14.22;100.00
18765;BME280;9511;54.242;12.448;2023-08-17T04:28:14;102077.53;;;14.26;100.00
18765;BME280;9511;54.242;12.448;2023-08-17T04:30:43;102085.66;;;14.31;100.00
18765;BME280;9511;54.242;12.448;2023-08-17T04:33:10;102086.59;;;14.33;100.00
18765;BME280;9511;54.242;12.448;2023-08-17T04:35:39;102080.44;;;14.34;100.00
18765;BME280;9511;54.242;12.448;2023-08-17T04:38:06;102090.56;;;14.46;100.00
18765;BME280;9511;54.242;12.448;2023-08-17T04:40:34;102090.00;;;14.56;100.00
18765;BME280;9511;54.242;12.448;2023-08-17T04:43:01;102093.09;;;14.70;100.00
18765;BME280;9511;54.242;12.448;2023-08-17T04:45:29;102101.31;;;14.79;100.00
18765;BME280;9511;54.242;12.448;2023-08-17T04:47:57;102086.63;;;14.92;100.00
18765;BME280;9511;54.242;12.448;2023-08-17T04:50:24;102084.22;;;15.02;100.00
18765;BME280;9511;54.242;12.448;2023-08-17T04:52:53;102083.75;;;15.16;100.00
18765;BME280;9511;54.242;12.448;2023-08-17T04:55:20;102078.78;;;15.29;100.00
18765;BME280;9511;54.242;12.448;2023-08-17T04:57:48;102088.09;;;15.45;100.00
18765;BME280;9511;54.242;12.448;2023-08-17T05:00:17;102089.28;;;15.56;100.00
18765;BME280;9511;54.242;12.448;2023-08-17T05:02:46;102080.72;;;15.68;100.00
18765;BME280;9511;54.242;12.448;2023-08-17T05:05:15;102076.56;;;15.79;100.00
18765;BME280;9511;54.242;12.448;2023-08-17T05:07:42;102083.06;;;15.90;100.00
18765;BME280;9511;54.242;12.448;2023-08-17T05:10:09;102085.91;;;15.98;100.00
18765;BME280;9511;54.242;12.448;2023-08-17T05:12:38;102085.25;;;16.08;100.00
18765;BME280;9511;54.242;12.448;2023-08-17T05:15:06;102096.16;;;16.17;100.00
18765;BME280;9511;54.242;12.448;2023-08-17T05:17:34;102108.66;;;16.18;100.00
18765;BME280;9511;54.242;12.448;2023-08-17T05:20:03;102107.25;;;16.36;100.00
18765;BME280;9511;54.242;12.448;2023-08-17T05:22:32;102107.53;;;16.48;100.00
18765;BME280;9511;54.242;12.448;2023-08-17T05:25:00;102106.06;;;16.62;100.00
18765;BME280;9511;54.242;12.448;2023-08-17T05:27:27;102100.16;;;16.76;100.00
18765;BME280;9511;54.242;12.448;2023-08-17T05:29:55;102099.53;;;16.87;100.00
18765;BME280;9511;54.242;12.448;2023-08-17T05:32:22;102101.41;;;16.93;100.00
18765;BME280;9511;54.242;12.448;2023-08-17T05:34:51;102097.13;;;17.01;100.00
18765;BME280;9511;54.242;12.448;2023-08-17T05:37:18;102106.25;;;17.12;100.00
18765;BME280;9511;54.242;12.448;2023-08-17T05:39:47;102102.78;;;17.18;100.00
18765;BME280;9511;54.242;12.448;2023-08-17T05:42:14;102100.25;;;17.25;100.00
18765;BME280;9511;54.242;12.448;2023-08-17T05:44:42;102104.94;;;17.37;100.00
18765;BME280;9511;54.242;12.448;2023-08-17T05:47:09;102089.84;;;17.41;100.00
18765;BME280;9511;54.242;12.448;2023-08-17T05:49:36;102088.16;;;17.46;100.00
18765;BME280;9511;54.242;12.448;2023-08-17T05:52:05;102080.28;;;17.53;100.00
18765;BME280;9511;54.242;12.448;2023-08-17T05:54:32;102081.34;;;17.63;100.00
18765;BME280;9511;54.242;12.448;2023-08-17T05:57:01;102084.28;;;17.77;100.00
18765;BME280;9511;54.242;12.448;2023-08-17T05:59:28;102081.78;;;17.88;100.00
18765;BME280;9511;54.242;12.448;2023-08-17T06:01:55;102072.22;;;18.03;100.00
18765;BME280;9511;54.242;12.448;2023-08-17T06:04:22;102080.50;;;18.20;100.00
18765;BME280;9511;54.242;12.448;2023-08-17T06:06:50;102073.63;;;18.38;100.00
18765;BME280;9511;54.242;12.448;2023-08-17T06:09:17;102074.59;;;18.44;100.00
18765;BME280;9511;54.242;12.448;2023-08-17T06:11:44;102080.81;;;18.42;100.00
18765;BME280;9511;54.242;12.448;2023-08-17T06:14:13;102083.59;;;18.48;100.00
18765;BME280;9511;54.242;12.448;2023-08-17T06:16:40;102085.59;;;18.64;100.00
18765;BME280;9511;54.242;12.448;2023-08-17T06:19:07;102083.09;;;18.76;99.06
18765;BME280;9511;54.242;12.448;2023-08-17T06:21:34;102085.00;;;18.87;98.20
18765;BME280;9511;54.242;12.448;2023-08-17T06:24:02;102085.09;;;18.94;96.40
18765;BME280;9511;54.242;12.448;2023-08-17T06:26:30;102085.09;;;18.93;94.86
18765;BME280;9511;54.242;12.448;2023-08-17T06:28:57;102084.16;;;18.91;93.67
18765;BME280;9511;54.242;12.448;2023-08-17T06:31:26;102084.28;;;19.00;92.39
18765;BME280;9511;54.242;12.448;2023-08-17T06:33:53;102091.38;;;18.98;91.74
18765;BME280;9511;54.242;12.448;2023-08-17T06:36:21;102096.81;;;19.02;91.07
18765;BME280;9511;54.242;12.448;2023-08-17T06:38:48;102084.41;;;19.10;90.46
18765;BME280;9511;54.242;12.448;2023-08-17T06:41:15;102080.84;;;19.13;89.56
18765;BME280;9511;54.242;12.448;2023-08-17T06:43:43;102077.44;;;19.31;89.28
18765;BME280;9511;54.242;12.448;2023-08-17T06:46:10;102074.97;;;19.51;88.40
18765;BME280;9511;54.242;12.448;2023-08-17T06:48:38;102082.19;;;19.58;87.02
18765;BME280;9511;54.242;12.448;2023-08-17T06:51:06;102078.81;;;19.77;86.20
18765;BME280;9511;54.242;12.448;2023-08-17T06:53:33;102081.53;;;19.82;85.50
18765;BME280;9511;54.242;12.448;2023-08-17T06:56:00;102088.78;;;19.94;85.12
18765;BME280;9511;54.242;12.448;2023-08-17T06:58:27;102092.41;;;20.00;84.39
18765;BME280;9511;54.242;12.448;2023-08-17T07:00:55;102089.91;;;20.23;84.26
18765;BME280;9511;54.242;12.448;2023-08-17T07:03:22;102092.66;;;20.31;83.30
18765;BME280;9511;54.242;12.448;2023-08-17T07:05:51;102100.75;;;20.37;83.25
18765;BME280;9511;54.242;12.448;2023-08-17T07:08:18;102088.31;;;20.50;82.68
18765;BME280;9511;54.242;12.448;2023-08-17T07:10:45;102091.91;;;20.53;82.29
18765;BME280;9511;54.242;12.448;2023-08-17T07:13:12;102081.13;;;20.49;82.70
18765;BME280;9511;54.242;12.448;2023-08-17T07:15:40;102086.50;;;20.52;81.11
18765;BME280;9511;54.242;12.448;2023-08-17T07:18:07;102097.28;;;20.58;81.14
18765;BME280;9511;54.242;12.448;2023-08-17T07:20:34;102096.47;;;20.69;81.13
18765;BME280;9511;54.242;12.448;2023-08-17T07:23:03;102097.38;;;20.72;80.83
18765;BME280;9511;54.242;12.448;2023-08-17T07:25:30;102100.06;;;20.75;80.70
18765;BME280;9511;54.242;12.448;2023-08-17T07:27:59;102113.47;;;20.64;80.23
18765;BME280;9511;54.242;12.448;2023-08-17T07:30:26;102104.53;;;20.65;80.40
18765;BME280;9511;54.242;12.448;2023-08-17T07:32:53;102104.53;;;20.69;80.44
18765;BME280;9511;54.242;12.448;2023-08-17T07:35:20;102107.13;;;20.53;80.24
18765;BME280;9511;54.242;12.448;2023-08-17T07:37:47;102108.03;;;20.52;80.44
18765;BME280;9511;54.242;12.448;2023-08-17T07:40:16;102102.59;;;20.47;80.54
18765;BME280;9511;54.242;12.448;2023-08-17T07:42:45;102102.69;;;20.58;80.13
18765;BME280;9511;54.242;12.448;2023-08-17T07:45:12;102106.31;;;20.66;80.24
18765;BME280;9511;54.242;12.448;2023-08-17T07:47:39;102089.34;;;20.76;79.52
18765;BME280;9511;54.242;12.448;2023-08-17T07:50:07;102096.50;;;20.74;77.73
18765;BME280;9511;54.242;12.448;2023-08-17T07:52:35;102097.50;;;21.10;78.11
18765;BME280;9511;54.242;12.448;2023-08-17T07:55:02;102105.63;;;21.20;77.49
18765;BME280;9511;54.242;12.448;2023-08-17T07:57:32;102105.63;;;21.20;77.71
18765;BME280;9511;54.242;12.448;2023-08-17T07:59:59;102114.69;;;21.35;76.17
18765;BME280;9511;54.242;12.448;2023-08-17T08:02:27;102108.34;;;21.28;76.17
18765;BME280;9511;54.242;12.448;2023-08-17T08:04:54;102104.78;;;21.29;76.06
18765;BME280;9511;54.242;12.448;2023-08-17T08:07:21;102107.47;;;21.29;76.58
18765;BME280;9511;54.242;12.448;2023-08-17T08:09:49;102101.13;;;21.13;76.98
18765;BME280;9511;54.242;12.448;2023-08-17T08:12:16;102102.88;;;21.10;77.58
18765;BME280;9511;54.242;12.448;2023-08-17T08:14:45;102100.19;;;21.08;77.39
18765;BME280;9511;54.242;12.448;2023-08-17T08:17:12;102104.59;;;20.77;77.23
18765;BME280;9511;54.242;12.448;2023-08-17T08:19:39;102117.97;;;20.69;78.16
18765;BME280;9511;54.242;12.448;2023-08-17T08:22:06;102114.38;;;20.64;77.85
18765;BME280;9511;54.242;12.448;2023-08-17T08:24:34;102109.84;;;20.56;77.89
18765;BME280;9511;54.242;12.448;2023-08-17T08:27:01;102113.41;;;20.52;78.47
18765;BME280;9511;54.242;12.448;2023-08-17T08:29:28;102114.25;;;20.46;78.14
18765;BME280;9511;54.242;12.448;2023-08-17T08:31:57;102120.44;;;20.34;78.23
18765;BME280;9511;54.242;12.448;2023-08-17T08:34:25;102124.78;;;20.14;78.67
18765;BME280;9511;54.242;12.448;2023-08-17T08:36:53;102116.75;;;20.23;79.41
18765;BME280;9511;54.242;12.448;2023-08-17T08:39:20;102114.16;;;20.31;80.05
18765;BME280;9511;54.242;12.448;2023-08-17T08:41:47;102118.59;;;20.27;79.67
18765;BME280;9511;54.242;12.448;2023-08-17T08:44:14;102110.56;;;20.35;79.91
18765;BME280;9511;54.242;12.448;2023-08-17T08:46:44;102101.75;;;20.50;79.88
18765;BME280;9511;54.242;12.448;2023-08-17T08:49:18;102108.06;;;20.58;79.43
18765;BME280;9511;54.242;12.448;2023-08-17T08:51:50;102098.25;;;20.66;78.72
18765;BME280;9511;54.242;12.448;2023-08-17T08:54:21;102088.50;;;20.89;79.00
18765;BME280;9511;54.242;12.448;2023-08-17T08:56:53;102091.25;;;21.06;78.40
18765;BME280;9511;54.242;12.448;2023-08-17T08:59:23;102088.59;;;21.26;77.84
18765;BME280;9511;54.242;12.448;2023-08-17T09:01:53;102082.38;;;21.39;77.68
18765;BME280;9511;54.242;12.448;2023-08-17T09:04:23;102077.88;;;21.32;77.08
18765;BME280;9511;54.242;12.448;2023-08-17T09:06:50;102079.59;;;21.27;76.78
18765;BME280;9511;54.242;12.448;2023-08-17T09:09:18;102076.94;;;21.29;76.49
18765;BME280;9511;54.242;12.448;2023-08-17T09:11:45;102076.06;;;21.28;76.45
18765;BME280;9511;54.242;12.448;2023-08-17T09:14:13;102091.25;;;21.12;76.85
18765;BME280;9511;54.242;12.448;2023-08-17T09:16:40;102084.97;;;21.13;76.69
18765;BME280;9511;54.242;12.448;2023-08-17T09:19:07;102083.13;;;20.95;76.12
18765;BME280;9511;54.242;12.448;2023-08-17T09:21:36;102083.13;;;20.97;76.92
18765;BME280;9511;54.242;12.448;2023-08-17T09:24:07;102075.09;;;21.00;76.78
18765;BME280;9511;54.242;12.448;2023-08-17T09:26:34;102067.00;;;20.95;77.68
18765;BME280;9511;54.242;12.448;2023-08-17T09:29:16;102072.38;;;20.95;78.11
18765;BME280;9511;54.242;12.448;2023-08-17T09:31:46;102066.97;;;20.91;77.81
18765;BME280;9511;54.242;12.448;2023-08-17T09:34:14;102066.13;;;21.00;78.43
18765;BME280;9511;54.242;12.448;2023-08-17T09:36:45;102072.34;;;20.92;78.39
18765;BME280;9511;54.242;12.448;2023-08-17T09:39:17;102083.09;;;20.86;78.78
18765;BME280;9511;54.242;12.448;2023-08-17T09:41:44;102084.00;;;20.82;78.50
18765;BME280;9511;54.242;12.448;2023-08-17T09:44:12;102090.25;;;20.77;78.84
18765;BME280;9511;54.242;12.448;2023-08-17T09:46:42;102074.03;;;20.63;78.87
18765;BME280;9511;54.242;12.448;2023-08-17T09:49:10;102079.38;;;20.57;78.74
18765;BME280;9511;54.242;12.448;2023-08-17T09:51:37;102074.88;;;20.53;79.55
18765;BME280;9511;54.242;12.448;2023-08-17T09:54:09;102085.63;;;20.48;80.47
18765;BME280;9511;54.242;12.448;2023-08-17T09:56:45;102072.94;;;20.30;80.02
18765;BME280;9511;54.242;12.448;2023-08-17T09:59:12;102077.31;;;20.13;80.45
18765;BME280;9511;54.242;12.448;2023-08-17T10:01:41;102079.94;;;20.07;80.01
18765;BME280;9511;54.242;12.448;2023-08-17T10:04:10;102081.72;;;20.03;79.97
18765;BME280;9511;54.242;12.448;2023-08-17T10:06:39;102067.38;;;20.04;81.11
18765;BME280;9511;54.242;12.448;2023-08-17T10:09:22;102079.03;;;20.06;81.48
18765;BME280;9511;54.242;12.448;2023-08-17T10:11:51;102062.97;;;20.14;81.33
18765;BME280;9511;54.242;12.448;2023-08-17T10:14:23;102057.66;;;20.20;81.77
18765;BME280;9511;54.242;12.448;2023-08-17T10:16:57;102066.59;;;20.19;81.75
18765;BME280;9511;54.242;12.448;2023-08-17T10:19:35;102066.63;;;20.25;81.94
18765;BME280;9511;54.242;12.448;2023-08-17T10:22:10;102062.19;;;20.30;81.95
18765;BME280;9511;54.242;12.448;2023-08-17T10:24:42;102060.41;;;20.35;81.92
18765;BME280;9511;54.242;12.448;2023-08-17T10:27:10;102055.97;;;20.43;81.88
18765;BME280;9511;54.242;12.448;2023-08-17T10:29:39;102063.16;;;20.41;81.80
18765;BME280;9511;54.242;12.448;2023-08-17T10:32:06;102059.63;;;20.52;81.83
18765;BME280;9511;54.242;12.448;2023-08-17T10:34:34;102050.69;;;20.56;81.37
18765;BME280;9511;54.242;12.448;2023-08-17T10:37:02;102050.66;;;20.53;81.01
18765;BME280;9511;54.242;12.448;2023-08-17T10:39:33;102057.84;;;20.48;81.16
18765;BME280;9511;54.242;12.448;2023-08-17T10:42:04;102057.78;;;20.45;81.49
18765;BME280;9511;54.242;12.448;2023-08-17T10:44:40;102060.53;;;20.52;81.20
18765;BME280;9511;54.242;12.448;2023-08-17T10:47:21;102065.03;;;20.58;81.26
18765;BME280;9511;54.242;12.448;2023-08-17T10:49:49;102063.25;;;20.54;82.22
18765;BME280;9511;54.242;12.448;2023-08-17T10:52:25;102066.81;;;20.50;82.96
18765;BME280;9511;54.242;12.448;2023-08-17T10:54:53;102062.31;;;20.49;83.64
18765;BME280;9511;54.242;12.448;2023-08-17T10:57:27;102063.16;;;20.45;84.83
18765;BME280;9511;54.242;12.448;2023-08-17T11:00:13;102061.44;;;20.51;85.68
18765;BME280;9511;54.242;12.448;2023-08-17T11:02:43;102062.38;;;20.59;86.75
18765;BME280;9511;54.242;12.448;2023-08-17T11:05:11;102059.69;;;20.61;86.40
18765;BME280;9511;54.242;12.448;2023-08-17T11:07:40;102064.16;;;20.59;86.53
18765;BME280;9511;54.242;12.448;2023-08-17T11:10:12;102062.38;;;20.62;86.34
18765;BME280;9511;54.242;12.448;2023-08-17T11:12:42;102059.69;;;20.61;86.37
18765;BME280;9511;54.242;12.448;2023-08-17T11:15:10;102055.19;;;20.58;87.14
18765;BME280;9511;54.242;12.448;2023-08-17T11:17:37;102052.56;;;20.72;87.41
18765;BME280;9511;54.242;12.448;2023-08-17T11:20:08;102052.56;;;20.72;87.00
18765;BME280;9511;54.242;12.448;2023-08-17T11:22:36;102048.09;;;20.77;86.88
18765;BME280;9511;54.242;12.448;2023-08-17T11:25:04;102049.03;;;20.82;86.64
18765;BME280;9511;54.242;12.448;2023-08-17T11:27:33;102045.44;;;20.85;86.06
18765;BME280;9511;54.242;12.448;2023-08-17T11:30:02;102044.50;;;20.80;86.07
18765;BME280;9511;54.242;12.448;2023-08-17T11:32:30;102047.19;;;20.75;85.85
18765;BME280;9511;54.242;12.448;2023-08-17T11:34:57;102040.94;;;20.78;85.89
18765;BME280;9511;54.242;12.448;2023-08-17T11:37:24;102049.91;;;20.78;85.57
18765;BME280;9511;54.242;12.448;2023-08-17T11:39:55;102050.78;;;20.71;85.28
18765;BME280;9511;54.242;12.448;2023-08-17T11:42:22;102047.13;;;20.63;85.52
18765;BME280;9511;54.242;12.448;2023-08-17T11:44:50;102042.59;;;20.48;85.72
18765;BME280;9511;54.242;12.448;2023-08-17T11:47:18;102041.66;;;20.41;86.98
18765;BME280;9511;54.242;12.448;2023-08-17T11:49:47;102043.41;;;20.36;87.40
18765;BME280;9511;54.242;12.448;2023-08-17T11:52:15;102043.38;;;20.35;88.16
18765;BME280;9511;54.242;12.448;2023-08-17T11:54:45;102039.78;;;20.34;88.86
18765;BME280;9511;54.242;12.448;2023-08-17T11:57:13;102047.03;;;20.41;89.61
18765;BME280;9511;54.242;12.448;2023-08-17T11:59:40;102042.53;;;20.43;90.16
18765;BME280;9511;54.242;12.448;2023-08-17T12:02:07;102051.56;;;20.49;90.55
18765;BME280;9511;54.242;12.448;2023-08-17T12:04:36;102045.28;;;20.50;90.57
18765;BME280;9511;54.242;12.448;2023-08-17T12:07:05;102045.31;;;20.56;89.95
18765;BME280;9511;54.242;12.448;2023-08-17T12:09:32;102039.81;;;20.37;86.36
18765;BME280;9511;54.242;12.448;2023-08-17T12:12:00;102037.94;;;20.24;82.30
18765;BME280;9511;54.242;12.448;2023-08-17T12:14:30;102037.09;;;20.25;79.37
18765;BME280;9511;54.242;12.448;2023-08-17T12:16:57;102038.00;;;20.30;78.71
18765;BME280;9511;54.242;12.448;2023-08-17T12:19:25;102029.94;;;20.30;77.80
18765;BME280;9511;54.242;12.448;2023-08-17T12:21:53;102028.16;;;20.35;78.03
18765;BME280;9511;54.242;12.448;2023-08-17T12:24:23;102027.31;;;20.42;78.02
18765;BME280;9511;54.242;12.448;2023-08-17T12:26:50;102033.53;;;20.35;77.45
18765;BME280;9511;54.242;12.448;2023-08-17T12:29:18;102027.25;;;20.33;77.56
18765;BME280;9511;54.242;12.448;2023-08-17T12:31:48;102034.44;;;20.37;77.87
18765;BME280;9511;54.242;12.448;2023-08-17T12:34:15;102038.91;;;20.31;76.76
18765;BME280;9511;54.242;12.448;2023-08-17T12:36:48;102035.25;;;20.24;76.30
18765;BME280;9511;54.242;12.448;2023-08-17T12:39:17;102036.19;;;20.26;75.92
18765;BME280;9511;54.242;12.448;2023-08-17T12:41:44;102037.03;;;20.19;75.67
18765;BME280;9511;54.242;12.448;2023-08-17T12:44:14;102028.06;;;20.15;75.83
18765;BME280;9511;54.242;12.448;2023-08-17T12:46:41;102036.97;;;20.11;75.51
18765;BME280;9511;54.242;12.448;2023-08-17T12:49:09;102037.88;;;20.10;75.70
18765;BME280;9511;54.242;12.448;2023-08-17T12:51:36;102031.59;;;20.11;76.11
18765;BME280;9511;54.242;12.448;2023-08-17T12:54:06;102025.34;;;20.11;76.04
18765;BME280;9511;54.242;12.448;2023-08-17T12:56:35;102019.97;;;20.09;75.96
18765;BME280;9511;54.242;12.448;2023-08-17T12:59:03;102027.13;;;20.09;75.38
18765;BME280;9511;54.242;12.448;2023-08-17T13:01:30;102020.81;;;20.05;75.13
18765;BME280;9511;54.242;12.448;2023-08-17T13:03:57;102022.63;;;20.05;76.03
18765;BME280;9511;54.242;12.448;2023-08-17T13:06:25;102016.41;;;20.13;75.33
18765;BME280;9511;54.242;12.448;2023-08-17T13:08:52;102018.13;;;20.02;74.66
18765;BME280;9511;54.242;12.448;2023-08-17T13:11:22;102024.41;;;20.06;75.04
18765;BME280;9511;54.242;12.448;2023-08-17T13:13:51;102031.56;;;20.07;75.31
18765;BME280;9511;54.242;12.448;2023-08-17T13:16:18;102032.47;;;20.06;75.25
18765;BME280;9511;54.242;12.448;2023-08-17T13:18:47;102027.06;;;20.01;74.99
18765;BME280;9511;54.242;12.448;2023-08-17T13:21:14;102038.72;;;20.02;74.49
18765;BME280;9511;54.242;12.448;2023-08-17T13:23:44;102028.88;;;20.07;74.84
18765;BME280;9511;54.242;12.448;2023-08-17T13:26:11;102019.97;;;20.08;75.27
18765;BME280;9511;54.242;12.448;2023-08-17T13:28:38;102016.34;;;20.06;74.69
18765;BME280;9511;54.242;12.448;2023-08-17T13:31:07;102025.34;;;20.08;74.74
18765;BME280;9511;54.242;12.448;2023-08-17T13:33:34;102036.94;;;20.05;74.85
18765;BME280;9511;54.242;12.448;2023-08-17T13:36:02;102025.25;;;19.99;75.86
18765;BME280;9511;54.242;12.448;2023-08-17T13:38:29;102027.00;;;19.94;76.22
18765;BME280;9511;54.242;12.448;2023-08-17T13:40:57;102024.34;;;19.92;76.07
18765;BME280;9511;54.242;12.448;2023-08-17T13:43:24;102035.97;;;19.93;76.66
18765;BME280;9511;54.242;12.448;2023-08-17T13:45:52;102027.91;;;19.94;77.52
18765;BME280;9511;54.242;12.448;2023-08-17T13:48:20;102038.66;;;19.94;78.05
18765;BME280;9511;54.242;12.448;2023-08-17T13:50:48;102032.34;;;19.87;78.42
18765;BME280;9511;54.242;12.448;2023-08-17T13:53:15;102034.13;;;19.88;79.03
18765;BME280;9511;54.242;12.448;2023-08-17T13:55:42;102037.69;;;19.81;79.94
18765;BME280;9511;54.242;12.448;2023-08-17T13:58:12;102034.94;;;19.74;81.12
18765;BME280;9511;54.242;12.448;2023-08-17T14:00:39;102053.66;;;19.66;81.40
18765;BME280;9511;54.242;12.448;2023-08-17T14:03:07;102046.41;;;19.56;81.45
18765;BME280;9511;54.242;12.448;2023-08-17T14:05:35;102046.31;;;19.47;81.82
18765;BME280;9511;54.242;12.448;2023-08-17T14:08:03;102050.72;;;19.42;82.32
18765;BME280;9511;54.242;12.448;2023-08-17T14:10:33;102056.88;;;19.31;82.81
18765;BME280;9511;54.242;12.448;2023-08-17T14:13:02;102047.88;;;19.23;81.53
18765;BME280;9511;54.242;12.448;2023-08-17T14:15:30;102045.16;;;19.20;82.13
18765;BME280;9511;54.242;12.448;2023-08-17T14:17:57;102043.31;;;19.15;82.20
18765;BME280;9511;54.242;12.448;2023-08-17T14:20:27;102036.06;;;19.07;82.78
18765;BME280;9511;54.242;12.448;2023-08-17T14:22:55;102035.19;;;19.07;83.16
18765;BME280;9511;54.242;12.448;2023-08-17T14:25:23;102026.19;;;19.02;83.63
18765;BME280;9511;54.242;12.448;2023-08-17T14:27:50;102026.22;;;19.05;83.35
18765;BME280;9511;54.242;12.448;2023-08-17T14:30:17;102028.91;;;19.05;83.69
18765;BME280;9511;54.242;12.448;2023-08-17T14:32:47;102027.13;;;19.07;83.84
18765;BME280;9511;54.242;12.448;2023-08-17T14:35:14;102028.97;;;19.13;84.44
18765;BME280;9511;54.242;12.448;2023-08-17T14:37:41;102032.56;;;19.13;84.08
18765;BME280;9511;54.242;12.448;2023-08-17T14:40:10;102032.59;;;19.16;84.19
18765;BME280;9511;54.242;12.448;2023-08-17T14:42:38;102024.56;;;19.19;84.93
18765;BME280;9511;54.242;12.448;2023-08-17T14:45:06;102023.75;;;19.26;85.15
18765;BME280;9511;54.242;12.448;2023-08-17T14:47:35;102025.50;;;19.23;85.48
18765;BME280;9511;54.242;12.448;2023-08-17T14:50:03;102012.09;;;19.24;85.64
18765;BME280;9511;54.242;12.448;2023-08-17T14:52:32;102014.72;;;19.18;85.11
18765;BME280;9511;54.242;12.448;2023-08-17T14:55:03;102010.25;;;19.17;85.14
18765;BME280;9511;54.242;12.448;2023-08-17T14:57:31;102011.09;;;19.15;85.19
18765;BME280;9511;54.242;12.448;2023-08-17T14:59:59;102002.97;;;19.04;84.84
18765;BME280;9511;54.242;12.448;2023-08-17T15:02:26;102012.69;;;18.93;84.87
18765;BME280;9511;54.242;12.448;2023-08-17T15:04:53;102020.75;;;18.93;84.48
18765;BME280;9511;54.242;12.448;2023-08-17T15:07:21;102009.06;;;18.89;84.25
18765;BME280;9511;54.242;12.448;2023-08-17T15:09:50;101995.59;;;18.81;84.09
18765;BME280;9511;54.242;12.448;2023-08-17T15:12:18;101995.56;;;18.80;84.58
18765;BME280;9511;54.242;12.448;2023-08-17T15:14:47;102004.47;;;18.77;84.43
18765;BME280;9511;54.242;12.448;2023-08-17T15:17:14;102005.28;;;18.70;84.41
18765;BME280;9511;54.242;12.448;2023-08-17T15:19:41;101993.59;;;18.67;84.82
18765;BME280;9511;54.242;12.448;2023-08-17T15:22:09;101993.59;;;18.65;84.77
18765;BME280;9511;54.242;12.448;2023-08-17T15:24:36;102001.56;;;18.61;84.52
18765;BME280;9511;54.242;12.448;2023-08-17T15:27:04;101981.00;;;18.58;84.58
18765;BME280;9511;54.242;12.448;2023-08-17T15:29:31;101993.47;;;18.56;84.03
18765;BME280;9511;54.242;12.448;2023-08-17T15:32:00;101994.34;;;18.53;83.96
18765;BME280;9511;54.242;12.448;2023-08-17T15:34:27;101998.81;;;18.53;83.98
18765;BME280;9511;54.242;12.448;2023-08-17T15:36:54;101994.41;;;18.58;83.85
18765;BME280;9511;54.242;12.448;2023-08-17T15:39:21;101996.16;;;18.56;83.63
18765;BME280;9511;54.242;12.448;2023-08-17T15:41:49;101984.50;;;18.54;84.02
18765;BME280;9511;54.242;12.448;2023-08-17T15:44:16;101990.72;;;18.50;84.33
18765;BME280;9511;54.242;12.448;2023-08-17T15:46:44;101982.72;;;18.53;82.62
18765;BME280;9511;54.242;12.448;2023-08-17T15:49:12;101992.50;;;18.49;81.64
18765;BME280;9511;54.242;12.448;2023-08-17T15:51:42;101990.69;;;18.47;81.20
18765;BME280;9511;54.242;12.448;2023-08-17T15:54:10;101986.19;;;18.44;80.76
18765;BME280;9511;54.242;12.448;2023-08-17T15:56:41;101991.53;;;18.46;79.85